createdAt,value
2018-01-31T01:59:32.088Z,100567
2018-01-31T02:09:33.610Z,100553
2018-01-31T02:19:35.174Z,100514
2018-01-31T02:29:37.479Z,100490
2018-01-31T02:40:01.268Z,100459
2018-01-31T02:50:02.808Z,100454
2018-01-31T03:00:05.079Z,100436
2018-01-31T03:10:06.578Z,100411
2018-01-31T03:20:08.175Z,100389
2018-01-31T03:30:09.806Z,100362
2018-01-31T03:40:11.326Z,100350
2018-01-31T03:50:13.605Z,100335
2018-01-31T04:00:15.147Z,100324
2018-01-31T04:10:17.403Z,100319
2018-01-31T04:20:18.995Z,100307
2018-01-31T04:30:20.516Z,100271
2018-01-31T04:40:22.035Z,100263
2018-01-31T04:50:23.672Z,100251
2018-01-31T05:00:25.147Z,100232
2018-01-31T05:10:27.197Z,100211
2018-01-31T05:20:28.738Z,100200
2018-01-31T05:30:30.226Z,100187
2018-01-31T05:40:31.777Z,100175
2018-01-31T05:50:33.388Z,100167
2018-01-31T06:00:34.935Z,100157
2018-01-31T06:10:36.509Z,100147
2018-01-31T06:20:38.117Z,100144
2018-01-31T06:30:39.605Z,100124
2018-01-31T06:40:41.151Z,100099
2018-01-31T06:50:42.636Z,100116
2018-01-31T07:00:44.150Z,100096
2018-01-31T07:10:45.781Z,100095
2018-01-31T07:20:47.292Z,100089
2018-01-31T07:30:48.783Z,100065
2018-01-31T07:40:50.289Z,100056
2018-01-31T07:50:51.833Z,100038
2018-01-31T08:00:53.368Z,100025
2018-01-31T08:10:55.577Z,100000
2018-01-31T08:20:57.877Z,99999
2018-01-31T08:30:59.463Z,99977
2018-01-31T08:41:00.921Z,99963
2018-01-31T08:51:02.415Z,99952
2018-01-31T09:01:03.973Z,99934
2018-01-31T09:11:05.479Z,99915
2018-01-31T09:21:07.129Z,99911
2018-01-31T09:31:08.709Z,99876
2018-01-31T09:41:10.228Z,99862
2018-01-31T09:51:11.790Z,99859
2018-01-31T10:01:14.029Z,99813
2018-01-31T10:11:15.554Z,99825
2018-01-31T10:21:17.116Z,99790
2018-01-31T10:31:18.629Z,99788
2018-01-31T10:41:20.249Z,99764
2018-01-31T10:51:28.804Z,99754
2018-01-31T11:01:30.419Z,99728
2018-01-31T11:11:31.969Z,99707
2018-01-31T11:21:34.316Z,99651
2018-01-31T11:31:36.000Z,99646
2018-01-31T11:41:38.298Z,99637
2018-01-31T11:51:40.005Z,99604
2018-01-31T12:01:41.596Z,99584
2018-01-31T12:11:43.173Z,99570
2018-01-31T12:21:44.718Z,99554
2018-01-31T12:32:05.133Z,99537
2018-01-31T12:42:06.286Z,99517
2018-01-31T12:52:40.063Z,99498
2018-01-31T13:03:14.620Z,99481
2018-01-31T13:13:34.735Z,99460
2018-01-31T13:23:36.311Z,99434
2018-01-31T13:33:56.900Z,99411
2018-01-31T13:44:16.787Z,99399
2018-01-31T13:54:37.671Z,99362
2018-01-31T14:04:57.340Z,99346
2018-01-31T14:36:12.293Z,99255
2018-01-31T14:46:13.604Z,99242
2018-01-31T14:56:15.681Z,99202
2018-01-31T15:06:16.822Z,99190
2018-01-31T15:16:18.817Z,99183
2018-01-31T15:26:20.699Z,99191
2018-01-31T15:36:21.856Z,99159
2018-01-31T15:46:23.205Z,99157
2018-01-31T15:56:24.332Z,99124
2018-01-31T16:06:25.659Z,99114
2018-01-31T16:16:27.178Z,99095
2018-01-31T16:26:28.701Z,99083
2018-01-31T16:36:31.044Z,99072
2018-01-31T16:46:32.746Z,99057
2018-01-31T16:56:34.299Z,99058
2018-01-31T17:06:35.805Z,99041
2018-01-31T17:16:38.145Z,99027
2018-01-31T17:26:40.453Z,99003
2018-01-31T17:36:42.728Z,99005
2018-01-31T17:46:44.349Z,98983
2018-01-31T17:56:45.888Z,98965
2018-01-31T18:06:47.490Z,98956
2018-01-31T18:16:49.114Z,98941
2018-01-31T18:26:50.778Z,98937
2018-01-31T18:36:53.158Z,98927
2018-01-31T18:46:54.708Z,98916
2018-01-31T18:56:56.464Z,98904
2018-01-31T19:06:58.050Z,98892
2018-01-31T19:16:59.696Z,98883
2018-01-31T19:27:02.140Z,98875
2018-01-31T19:37:03.676Z,98877
2018-01-31T19:47:05.332Z,98878
2018-01-31T19:57:07.704Z,98883
2018-01-31T20:07:09.278Z,98876
2018-01-31T20:17:10.728Z,98872
2018-01-31T20:27:12.454Z,98847
2018-01-31T20:37:14.685Z,98857
2018-01-31T20:47:16.277Z,98848
2018-01-31T20:57:18.603Z,98836
2018-01-31T21:07:20.327Z,98815
2018-01-31T21:17:21.876Z,98825
2018-01-31T21:27:24.263Z,98808
2018-01-31T21:37:25.852Z,98804
2018-01-31T21:47:27.507Z,98813
2018-01-31T21:57:48.148Z,98803
2018-01-31T22:07:49.895Z,98773
2018-01-31T22:17:51.518Z,98768
2018-01-31T22:27:53.089Z,98767
2018-01-31T22:37:54.659Z,98765
2018-01-31T22:47:56.947Z,98751
2018-01-31T22:57:58.462Z,98767
2018-01-31T23:08:00.044Z,98749
2018-01-31T23:18:07.593Z,98745
2018-01-31T23:28:09.085Z,98762
2018-01-31T23:38:10.607Z,98760
2018-01-31T23:48:12.153Z,98764
2018-01-31T23:58:14.467Z,98781
